Map

Track Data

SID SEASON NUMBER BASIN SUBBASIN NAME ISO_TIME NATURE LAT LON WMO_WIND WMO_PRES WMO_AGENCY TRACK_TYPE DIST2LAND LANDFALL IFLAG USA_AGENCY USA_ATCF_ID USA_LAT USA_LON USA_RECORD USA_STATUS USA_WIND USA_PRES USA_SSHS USA_R34_NE USA_R34_SE USA_R34_SW USA_R34_NW USA_R50_NE USA_R50_SE USA_R50_SW USA_R50_NW USA_R64_NE USA_R64_SE USA_R64_SW USA_R64_NW USA_POCI USA_ROCI USA_RMW USA_EYE TOKYO_LAT TOKYO_LON TOKYO_GRADE TOKYO_WIND TOKYO_PRES TOKYO_R50_DIR TOKYO_R50_LONG TOKYO_R50_SHORT TOKYO_R30_DIR TOKYO_R30_LONG TOKYO_R30_SHORT TOKYO_LAND CMA_LAT CMA_LON CMA_CAT CMA_WIND CMA_PRES HKO_LAT HKO_LON HKO_CAT HKO_WIND HKO_PRES NEWDELHI_LAT NEWDELHI_LON NEWDELHI_GRADE NEWDELHI_WIND NEWDELHI_PRES NEWDELHI_CI NEWDELHI_DP NEWDELHI_POCI REUNION_LAT REUNION_LON REUNION_TYPE REUNION_WIND REUNION_PRES REUNION_TNUM REUNION_CI REUNION_RMW REUNION_R34_NE REUNION_R34_SE REUNION_R34_SW REUNION_R34_NW REUNION_R50_NE REUNION_R50_SE REUNION_R50_SW REUNION_R50_NW REUNION_R64_NE REUNION_R64_SE REUNION_R64_SW REUNION_R64_NW BOM_LAT BOM_LON BOM_TYPE BOM_WIND BOM_PRES BOM_TNUM BOM_CI BOM_RMW BOM_R34_NE BOM_R34_SE BOM_R34_SW BOM_R34_NW BOM_R50_NE BOM_R50_SE BOM_R50_SW BOM_R50_NW BOM_R64_NE BOM_R64_SE BOM_R64_SW BOM_R64_NW BOM_ROCI BOM_POCI BOM_EYE BOM_POS_METHOD BOM_PRES_METHOD NADI_LAT NADI_LON NADI_CAT NADI_WIND NADI_PRES WELLINGTON_LAT WELLINGTON_LON WELLINGTON_WIND WELLINGTON_PRES DS824_LAT DS824_LON DS824_STAGE DS824_WIND DS824_PRES TD9636_LAT TD9636_LON TD9636_STAGE TD9636_WIND TD9636_PRES TD9635_LAT TD9635_LON TD9635_WIND TD9635_PRES TD9635_ROCI NEUMANN_LAT NEUMANN_LON NEUMANN_CLASS NEUMANN_WIND NEUMANN_PRES MLC_LAT MLC_LON MLC_CLASS MLC_WIND MLC_PRES USA_GUST BOM_GUST BOM_GUST_PER REUNION_GUST REUNION_GUST_PER USA_SEAHGT USA_SEARAD_NE USA_SEARAD_SE USA_SEARAD_SW USA_SEARAD_NW STORM_SPEED STORM_DIR
1898294N19274 1898 52 NA CS NOT_NAMED 1898-10-21 00:00:00 TS 18.5000 -85.8000 35 hurdat_atl main 194 191 O_____________ hurdat_atl AL101898 18.5000 -85.8000 TS 35 0 5 20
1898294N19274 1898 52 NA CS NOT_NAMED 1898-10-21 03:00:00 TS 18.7500 -85.7100 main 194 190 P_____________ AL101898 18.7500 -85.7100 TS 35 0 5 21
1898294N19274 1898 52 NA CS NOT_NAMED 1898-10-21 06:00:00 TS 19.0000 -85.6000 35 hurdat_atl main 197 194 O_____________ hurdat_atl AL101898 19.0000 -85.6000 TS 35 0 6 25
1898294N19274 1898 52 NA CS NOT_NAMED 1898-10-21 09:00:00 TS 19.2500 -85.4575 main 200 200 P_____________ AL101898 19.2500 -85.4575 TS 35 0 6 30
1898294N19274 1898 52 NA CS NOT_NAMED 1898-10-21 12:00:00 TS 19.5000 -85.3000 35 hurdat_atl main 220 214 O_____________ hurdat_atl AL101898 19.5000 -85.3000 TS 35 0 6 31
1898294N19274 1898 52 NA CS NOT_NAMED 1898-10-21 15:00:00 TS 19.7425 -85.1499 main 224 202 P_____________ AL101898 19.7425 -85.1499 TS 35 0 6 30
1898294N19274 1898 52 NA CS NOT_NAMED 1898-10-21 18:00:00 TS 20.0000 -85.0000 35 hurdat_atl main 202 168 O_____________ hurdat_atl AL101898 20.0000 -85.0000 TS 35 0 6 26
1898294N19274 1898 52 NA CS NOT_NAMED 1898-10-21 21:00:00 TS 20.3000 -84.8574 main 168 134 P_____________ AL101898 20.3000 -84.8574 TS 37 0 7 25
1898294N19274 1898 52 NA CS NOT_NAMED 1898-10-22 00:00:00 TS 20.6000 -84.7000 40 hurdat_atl main 134 111 O_____________ hurdat_atl AL101898 20.6000 -84.7000 TS 40 0 6 30
1898294N19274 1898 52 NA CS NOT_NAMED 1898-10-22 03:00:00 TS 20.8424 -84.5223 main 111 80 P_____________ AL101898 20.8424 -84.5223 TS 40 0 6 37
1898294N19274 1898 52 NA CS NOT_NAMED 1898-10-22 06:00:00 TS 21.1000 -84.3000 40 hurdat_atl main 80 55 O_____________ hurdat_atl AL101898 21.1000 -84.3000 TS 40 0 7 38
1898294N19274 1898 52 NA CS NOT_NAMED 1898-10-22 09:00:00 TS 21.4274 -84.0373 main 55 30 P_____________ AL101898 21.4274 -84.0373 TS 40 0 9 39
1898294N19274 1898 52 NA CS NOT_NAMED 1898-10-22 12:00:00 TS 21.8000 -83.7000 40 hurdat_atl main 32 10 O_____________ hurdat_atl AL101898 21.8000 -83.7000 TS 40 0 10 42
1898294N19274 1898 52 NA CS NOT_NAMED 1898-10-22 15:00:00 TS 22.1848 -83.2947 main 10 10 P_____________ AL101898 22.1848 -83.2947 TS 40 0 12 46
1898294N19274 1898 52 NA CS NOT_NAMED 1898-10-22 18:00:00 TS 22.6000 -82.8000 40 hurdat_atl main 11 0 O_____________ hurdat_atl AL101898 22.6000 -82.8000 TS 40 0 13 49
1898294N19274 1898 52 NA NA NOT_NAMED 1898-10-22 21:00:00 TS 23.0575 -82.2226 main 0 0 P_____________ AL101898 23.0575 -82.2226 TS 37 0 14 51
1898294N19274 1898 52 NA NA NOT_NAMED 1898-10-23 00:00:00 TS 23.5000 -81.6000 35 hurdat_atl main 44 44 O_____________ hurdat_atl AL101898 23.5000 -81.6000 TS 35 0 14 54
1898294N19274 1898 52 NA NA NOT_NAMED 1898-10-23 03:00:00 TS 23.8571 -81.0142 main 94 94 P_____________ AL101898 23.8571 -81.0142 TS 37 0 13 57
1898294N19274 1898 52 NA NA NOT_NAMED 1898-10-23 06:00:00 TS 24.2000 -80.4000 40 hurdat_atl main 100 83 O_____________ hurdat_atl AL101898 24.2000 -80.4000 TS 40 0 13 59
1898294N19274 1898 52 NA NA NOT_NAMED 1898-10-23 09:00:00 TS 24.5540 -79.7658 main 82 67 P_____________ AL101898 24.5540 -79.7658 TS 37 0 15 58
1898294N19274 1898 52 NA NA NOT_NAMED 1898-10-23 12:00:00 ET 25.0000 -79.0000 35 hurdat_atl main 67 39 O_____________ hurdat_atl AL101898 25.0000 -79.0000 EX 35 -4 19 56
1898294N19274 1898 52 NA NA NOT_NAMED 1898-10-23 15:00:00 ET 25.6048 -78.0186 main 55 55 P_____________ AL101898 25.6048 -78.0186 EX 35 -4 23 56
1898294N19274 1898 52 NA NA NOT_NAMED 1898-10-23 18:00:00 ET 26.3000 -76.9000 35 hurdat_atl main 173 O_____________ hurdat_atl AL101898 26.3000 -76.9000 EX 35 -4 24 55

About IBTrACS Database

This database is a web-friendly format of International Best Track Archive for Climate Stewardship (IBTrACS), a global best track data archive curated by NOAA dating back to 1842.

Updated: 2021-12-03